Alapaha, Georgia
Current Conditions -  °F | °C
As of 1:10 PM on Tuesday 21 Oct 2014 (Local Time) from KTMA Reporting Station
Clear Clear  
Wind Chill: 24°   Ceiling: Unl
Heat Index: 24°   Visibility: 10mi
Dew Point:   Wind: 5mph
Humidity: 39%   Direction: 310°NW
Pressure: 29.99"   Gusts: NA
Location:  31.39°N, 83.22°W
Report Text: KTMA 211710Z AUTO 31004KT 10SM CLR 24/09 A2999 RMK AO2 T02400093
Loading
Personal Weather Stations






























Interactive Weather Map
Tropical Storm Tracking
New forecast layout! Learn more

10-Day Weather Forecast

Advertisements
Track Severe Weather on mobile